Impacts METAR Board
IDs:

KSLC - Salt Lake City Intl, UT, US

Updated at: 0900 UTC 30 Oct 2020
Potential Impact None Slight Moderate High
Time 29/21Z 29/22Z 29/23Z 30/00Z 30/01Z 30/02Z 30/03Z 30/04Z 30/05Z 30/06Z 30/07Z 30/08Z 30/09Z
Temp61 62 61 58 52 49 49 47 45 43 42 41 41
Dewpt29 28 30 30 32 30 30 30 31 29 29 28 27
Altim30.26 30.25 30.25 30.24 30.25 30.25 30.25 30.25 30.26 30.26 30.25 30.25 30.24
VIS9 9 10 10 10 10 10 10 10 10 10 10 10
CIG-- -- -- -- -- -- -- -- -- -- -- -- --
CoverCLRCLRCLRCLRCLRCLRCLRCLRCLRCLRCLRCLRCLR
FltCatVFRVFRVFRVFRVFRVFRVFRVFRVFRVFRVFRVFRVFR
WX--------------------------
WDir03003202800000150140130140130
WSpd5 5 6 6 0 0 0 0 5 4 6 6 4
WGst-- -- -- -- -- -- -- -- -- -- -- -- --
Raw hourly METARs
KSLC 292054Z VRB05KT 9SM CLR 16/M02 A3026 RMK AO2 SLP234 T01611017 58019 VISNO NW RNWY $
KSLC 292154Z 30005KT 9SM CLR 17/M02 A3025 RMK AO2 SLP230 T01671022 VISNO NW RNWY $
KSLC 292254Z 32006KT 10SM CLR 16/M01 A3025 RMK AO2 SLP229 T01611011 VISNO NW RNWY $
KSLC 292354Z 28006KT 10SM CLR 14/M01 A3024 RMK AO2 SLP228 T01441011 10167 20117 56007 VISNO NW RNWY $
KSLC 300054Z 00000KT 10SM CLR 11/00 A3025 RMK AO2 SLP236 T01110000 VISNO NW RNWY $
KSLC 300154Z 00000KT 10SM CLR 09/M01 A3025 RMK AO2 SLP240 T00941011 VISNO NW RNWY $
KSLC 300254Z 00000KT 10SM CLR 09/M01 A3025 RMK AO2 SLP238 T00941011 51003 VISNO NW RNWY $
KSLC 300354Z 00000KT 10SM CLR 08/M01 A3025 RMK AO2 SLP233 T00831011 VISNO NW RNWY $
KSLC 300454Z 15005KT 10SM CLR 07/M01 A3026 RMK AO2 SLP233 T00721006 VISNO NW RNWY $
KSLC 300554Z 14004KT 10SM CLR 06/M02 A3026 RMK AO2 SLP231 T00611017 10144 20050 53001 VISNO NW RNWY $
KSLC 300654Z 13006KT 10SM CLR 06/M02 A3025 RMK AO2 SLP228 T00561017 401670011 VISNO NW RNWY $
KSLC 300754Z 14006KT 10SM CLR 05/M02 A3025 RMK AO2 SLP224 T00501022 VISNO NW RNWY $
KSLC 300854Z 13004KT 10SM CLR 05/M03 A3024 RMK AO2 SLP223 T00501028 56003 VISNO NW RNWY $



Page loaded:  09:42 UTC  |   02:42 AM Pacific  |   03:42 AM Mountain  |   04:42 AM Central  |   05:42 AM Eastern

 

ADVISORIES

FORECASTS

FORECASTS

OBSERVATIONS

USER TOOLS

ABOUT US